Aérodrome :
LOGIN :

S'inscrire | Disclaimer

   EN    FR    IT 

 










Légende :    VFR   VFR Marginal   IFR   IFR Intensif   IFR Très Intensif
Visi : 
Plafond : 
>= 8 km
>= 3000ft
5 à 8 km
1000 à 3000 ft
1500m à 5 km
500 à 1000 ft
800 à 1500m
200 à 500 ft
< 800m
< 200 ft
Symboles :   Orages  Brouillard  Fortes neiges  Fortes précipitations  Vent > 20 kt
SIGMETs :   Divers  Orages  Givrage  Turbulence  Onde Orograph.  Cendres Volcan.






- Altitude de l'aérodrome : 231 ft
- Code IATA : WTN


EGXW - RAF Waddington

DERNIER METAR :
  • 130920Z 24007KT 8000 HZ FEW012 04/03 Q0999 TEMPO SCT010 RMK BLU TEMPO GRN

METARs EXPIRÉS :
  • 130850Z 24007KT 9999 4000S FEW010 03/02 Q0999 BECMG 9999 RMK GRN BECMG BLU
  • 130820Z 22007KT 8000 2500S HZ FEW001 SCT200 02/01 Q0999 BECMG 9999 NSW RMK YLO1 BECMG BLU
  • 130815Z 22007KT 9999 2500SE BR SCT001 SCT200 03/02 Q0999 BECMG 9999 FEW005
  • 130806Z 23006KT 9999 4000SE FEW002 SCT200 03/02 Q0999 BECMG 9999 RMK GRN BECMG BLU
  • 130750Z 24007KT 9999 FEW012 03/02 Q0999 NOSIG RMK BLU BLU
  • 130720Z 21007KT CAVOK 02/01 Q0999 NOSIG RMK BLU BLU
  • 130650Z 22007KT 9999 FEW012 02/01 Q0999 RMK BLU

TAF AMD TAF EGXW
Valide du 13 à 09h jusqu'au 14 à 03h UTC


130852Z 1309/1403 24008KT 9999 FEW015
TEMPO 1309/1310 4000 BR
PROB30
TEMPO 1310/1314 SCT010
PROB30
TEMPO 1314/1317 SCT015
PROB30 1319/1403 6000 BR



MET'MAP, la Météo Aéronautique d'un coup d'oeil ! - Copyright ORBIFLY Décembre 2007 - Disclaimer

ORBIFLY MET'MAP TEAM :

Programmation & Développement : Alexandra Zaïnal
Conception & Développement : Baudouin d'Aumeries
Co-Programmation & Développement : Marc-Olivier Méhu
Soutien technique & logistique : Manuel Goepfert

Contact : metmap@orbifly.com




SOURCES & CREDITS :

   NOAA